Time;durP1;ratioP1;P1;durP2;ratioP2;P2;SDS_P1;SDS_P2;PMS_P1;PMS_P2;Temp;Humidity;BMP_temperature;BMP_pressure;BME280_temperature;BME280_humidity;BME280_pressure;Samples;Min_cycle;Max_cycle;Signal;HPM_P1;HPM_P2
2020/12/17 00:01:57;;;;;;;;;;;;;;;1.65;99.40;98796.56;5032257;28;20443;-74
2020/12/17 00:04:22;;;;;;;31.95;17.60;;;;;;;1.63;99.32;98791.38;5031796;28;19975;-75
2020/12/17 00:06:48;;;;;;;31.40;16.52;;;;;;;1.59;99.15;98787.47;5030382;28;20520;-74
2020/12/17 00:09:13;;;;;;;;;;;;;;;1.67;99.33;98794.47;5031609;28;20033;-76
2020/12/17 00:11:39;;;;;;;28.15;16.58;;;;;;;1.75;98.91;98791.53;5031014;28;19921;-74
2020/12/17 00:14:04;;;;;;;31.33;18.33;;;;;;;1.77;98.67;98784.03;5031445;28;20112;-75
2020/12/17 00:16:29;;;;;;;;;;;;;;;1.82;98.76;98786.88;5031350;28;20025;-74
2020/12/17 00:18:55;;;;;;;29.70;17.15;;;;;;;1.92;98.57;98789.94;5031080;28;20385;-74
2020/12/17 00:21:20;;;;;;;;;;;;;;;1.95;98.34;98789.50;5031463;28;20116;-76
2020/12/17 00:23:46;;;;;;;29.73;17.50;;;;;;;1.94;98.07;98790.53;5030705;28;19917;-75
2020/12/17 00:26:12;;;;;;;30.35;18.27;;;;;;;1.97;98.47;98779.28;5043096;28;20103;-74
2020/12/17 00:28:38;;;;;;;39.13;18.58;;;;;;;2.07;98.43;98782.34;5049378;28;20107;-74
2020/12/17 00:31:03;;;;;;;24.17;16.17;;;;;;;2.14;98.14;98780.41;5051014;28;20025;-75
2020/12/17 00:33:29;;;;;;;;;;;;;;;2.15;98.32;98781.25;5051380;28;20382;-76
2020/12/17 00:35:54;;;;;;;28.88;16.58;;;;;;;2.16;98.23;98782.91;5050866;28;20366;-76
2020/12/17 00:38:20;;;;;;;24.80;14.88;;;;;;;2.06;98.08;98783.41;5050711;28;20036;-75
2020/12/17 00:40:45;;;;;;;;;;;;;;;2.03;98.10;98777.63;5051411;28;20029;-75
2020/12/17 00:43:10;;;;;;;22.25;14.18;;;;;;;2.03;98.06;98786.53;5049974;28;19912;-75
2020/12/17 00:45:36;;;;;;;;;;;;;;;2.03;98.13;98788.41;5051195;28;20024;-76
2020/12/17 00:48:01;;;;;;;20.90;13.35;;;;;;;2.02;98.12;98786.75;5050681;28;19905;-74
2020/12/17 00:50:26;;;;;;;;;;;;;;;1.93;98.07;98783.50;5066534;28;20390;-75
2020/12/17 00:52:52;;;;;;;33.92;15.93;;;;;;;1.95;98.00;98792.19;5054597;28;19926;-75
2020/12/17 00:55:17;;;;;;;30.40;16.33;;;;;;;1.80;98.17;98780.91;5054556;28;20056;-73
2020/12/17 00:57:42;;;;;;;;;;;;;;;1.76;98.59;98782.38;5053951;28;20094;-73
2020/12/17 01:00:08;;;;;;;30.45;16.98;;;;;;;1.73;98.87;98781.97;5055392;28;19905;-74
2020/12/17 01:02:34;;;;;;;21.75;16.02;;;;;;;1.72;98.71;98789.25;5055550;28;20025;-75
2020/12/17 01:05:00;;;;;;;27.67;17.17;;;;;;;1.68;99.15;98788.03;5054943;28;20037;-75
2020/12/17 01:07:25;;;;;;;25.80;16.52;;;;;;;1.66;99.21;98794.69;5054305;28;20111;-75
2020/12/17 01:09:50;;;;;;;;;;;;;;;1.55;99.36;98783.56;5053385;28;20029;-75
2020/12/17 01:12:16;;;;;;;34.63;17.55;;;;;;;1.54;99.62;98787.28;5069717;28;19975;-75
2020/12/17 01:14:41;;;;;;;29.75;17.40;;;;;;;1.55;99.48;98782.72;5054442;28;20052;-75
2020/12/17 01:17:07;;;;;;;29.27;17.48;;;;;;;1.56;99.45;98787.91;5052800;28;20082;-76
2020/12/17 01:19:33;;;;;;;;;;;;;;;1.53;99.72;98793.75;5054545;28;20033;-73
2020/12/17 01:22:00;;;;;;;34.63;19.30;;;;;;;1.50;99.57;98787.97;5054231;28;20683;-76
2020/12/17 01:24:26;;;;;;;28.80;16.60;;;;;;;1.58;99.79;98793.06;5053934;28;20055;-75
2020/12/17 01:26:53;;;;;;;25.27;16.27;;;;;;;1.61;99.87;98798.03;5052191;28;20025;-75
2020/12/17 01:29:19;;;;;;;29.83;17.95;;;;;;;1.73;99.17;98796.28;5052697;28;20028;-73
2020/12/17 01:31:44;;;;;;;30.02;18.02;;;;;;;1.76;98.75;98803.94;5053524;28;20024;-76
2020/12/17 01:34:09;;;;;;;;;;;;;;;1.82;98.75;98794.16;5051812;28;20021;-75
2020/12/17 01:36:35;;;;;;;27.65;16.80;;;;;;;1.88;98.92;98802.19;5051580;28;20259;-76
2020/12/17 01:39:00;;;;;;;;;;;;;;;1.89;98.46;98798.47;5053732;28;20037;-76
2020/12/17 01:41:25;;;;;;;27.33;16.08;;;;;;;1.89;98.54;98798.47;5051387;28;19913;-74
2020/12/17 01:43:51;;;;;;;;;;;;;;;1.93;98.60;98791.59;5052352;28;20037;-75
2020/12/17 01:46:16;;;;;;;24.40;14.43;;;;;;;1.95;98.52;98791.34;5051710;28;19912;-76
2020/12/17 01:48:42;;;;;;;;;;;;;;;1.99;98.29;98792.56;5053959;28;20112;-75
2020/12/17 01:51:08;;;;;;;28.08;16.00;;;;;;;2.01;98.37;98794.00;5052261;28;19909;-74
2020/12/17 01:53:39;;;;;;;22.48;15.35;;;;;;;2.05;97.98;98797.91;5052458;28;20474;-76
2020/12/17 01:56:28;;;;;;;22.80;15.65;;;;;;;1.79;98.07;98768.44;5052467;28;20039;-75
2020/12/17 01:59:05;;;;;;;30.10;16.42;;;;;;;2.03;98.26;98794.63;5052943;28;20037;-76
2020/12/17 02:01:31;;;;;;;25.92;14.35;;;;;;;1.94;98.30;98785.13;5053639;28;20035;-75
2020/12/17 02:04:01;;;;;;;23.85;13.80;;;;;;;2.05;98.29;98800.63;5052524;28;20037;-75
2020/12/17 02:06:27;;;;;;;22.60;13.57;;;;;;;2.11;97.51;98796.22;5053335;28;20021;-75
2020/12/17 02:08:53;;;;;;;17.45;12.43;;;;;;;1.99;97.77;98792.56;5051971;28;20018;-76
2020/12/17 02:11:19;;;;;;;26.60;14.85;;;;;;;1.86;98.16;98788.13;5051812;28;20025;-75
2020/12/17 02:13:46;;;;;;;25.52;14.20;;;;;;;1.82;98.34;98786.06;5053647;28;20433;-75
2020/12/17 02:16:12;;;;;;;22.30;13.50;;;;;;;1.74;98.96;98783.63;5053329;28;20028;-75
2020/12/17 02:18:37;;;;;;;23.88;15.65;;;;;;;1.69;98.82;98791.56;5051898;28;20029;-75
2020/12/17 02:21:03;;;;;;;17.05;11.88;;;;;;;1.63;98.85;98785.16;5052727;28;20025;-76
2020/12/17 02:23:28;;;;;;;;;;;;;;;1.58;98.77;98785.81;5053513;28;20025;-75
2020/12/17 02:25:54;;;;;;;17.33;11.20;;;;;;;1.59;99.04;98781.25;5052761;28;20279;-76
2020/12/17 02:28:21;;;;;;;17.02;13.05;;;;;;;1.63;98.50;98783.28;5053074;28;20066;-76
2020/12/17 02:30:47;;;;;;;19.55;11.45;;;;;;;1.54;99.03;98781.91;5053044;28;20107;-76
2020/12/17 02:33:12;;;;;;;18.85;12.40;;;;;;;1.72;98.88;98789.25;5052530;28;20108;-73
2020/12/17 02:35:38;;;;;;;24.25;13.25;;;;;;;1.65;98.75;98790.34;5053063;28;20478;-75
2020/12/17 02:38:05;;;;;;;22.83;13.18;;;;;;;1.61;98.90;98789.94;5052821;28;20493;-76
2020/12/17 02:40:31;;;;;;;27.45;13.68;;;;;;;1.50;99.18;98782.56;5052993;28;20043;-75
2020/12/17 02:42:56;;;;;;;24.10;14.07;;;;;;;1.59;99.70;98786.66;5052778;28;20497;-76
2020/12/17 02:45:22;;;;;;;22.80;13.32;;;;;;;1.65;99.34;98793.88;5053170;28;20033;-75
2020/12/17 02:47:47;;;;;;;;;;;;;;;1.72;99.23;98791.97;5053239;28;20071;-76
2020/12/17 02:50:14;;;;;;;17.15;12.77;;;;;;;1.82;99.00;98786.88;5052701;28;19916;-74
2020/12/17 02:52:42;;;;;;;26.63;12.50;;;;;;;1.86;98.70;98790.81;5054343;28;20025;-76
2020/12/17 02:55:08;;;;;;;16.75;11.15;;;;;;;1.87;98.48;98784.38;5071584;28;20604;-76
2020/12/17 02:57:34;;;;;;;19.58;12.18;;;;;;;1.81;98.38;98787.97;5055452;28;20079;-76
2020/12/17 03:00:00;;;;;;;19.05;11.60;;;;;;;1.75;98.93;98783.44;5051810;28;20065;-73
2020/12/17 03:02:25;;;;;;;21.02;12.30;;;;;;;1.71;99.22;98776.81;5051582;28;20040;-74
2020/12/17 03:04:51;;;;;;;;;;;;;;;1.87;99.02;98792.47;5051538;28;20062;-75
2020/12/17 03:07:16;;;;;;;18.55;11.70;;;;;;;1.99;98.67;98782.63;5052679;28;19913;-76
2020/12/17 03:09:41;;;;;;;;;;;;;;;2.01;98.30;98788.59;5052914;28;20039;-75
2020/12/17 03:12:07;;;;;;;16.48;10.35;;;;;;;1.99;98.20;98782.63;5052880;28;19959;-75
2020/12/17 03:14:32;;;;;;;;;;;;;;;2.06;98.36;98778.00;5053317;28;20116;-76
2020/12/17 03:16:57;;;;;;;17.70;11.48;;;;;;;2.03;98.51;98780.31;5052075;28;20267;-77
2020/12/17 03:19:23;;;;;;;;;;;;;;;2.10;98.48;98776.50;5052183;28;20099;-76
2020/12/17 03:21:51;;;;;;;17.27;10.73;;;;;;;2.09;98.58;98782.97;5053414;28;19912;-76
2020/12/17 03:24:17;;;;;;;18.98;11.90;;;;;;;2.02;98.85;98784.88;5054166;28;20051;-74
2020/12/17 03:26:42;;;;;;;26.23;11.60;;;;;;;1.97;98.99;98790.09;5054396;28;20433;-77
2020/12/17 03:29:08;;;;;;;;;;;;;;;1.92;99.36;98794.50;5057941;28;20029;-76
2020/12/17 03:31:33;;;;;;;17.60;10.30;;;;;;;1.87;99.64;98783.56;5056409;28;19913;-75
2020/12/17 03:33:58;;;;;;;;;;;;;;;1.89;99.62;98787.66;5056687;28;20067;-76
2020/12/17 03:36:24;;;;;;;17.25;10.85;;;;;;;1.80;99.47;98777.38;5053910;28;19912;-75
2020/12/17 03:38:49;;;;;;;;;;;;;;;1.78;99.60;98785.69;5054996;28;20173;-78
2020/12/17 03:41:14;;;;;;;22.40;10.52;;;;;;;1.73;99.75;98782.81;5056158;28;19912;-75
2020/12/17 03:43:40;;;;;;;;;;;;;;;1.74;99.79;98789.88;5055458;28;20032;-75
2020/12/17 03:46:05;;;;;;;21.02;9.95;;;;;;;1.64;99.90;98789.50;5055831;28;19912;-75
2020/12/17 03:48:30;;;;;;;;;;;;;;;1.58;100.00;98783.13;5051627;28;20555;-75
2020/12/17 03:50:56;;;;;;;19.25;12.52;;;;;;;1.52;100.00;98781.31;5050968;28;20290;-75
2020/12/17 03:53:21;;;;;;;18.10;10.50;;;;;;;1.48;100.00;98784.63;5051919;28;20646;-75
2020/12/17 03:55:46;;;;;;;18.45;11.82;;;;;;;1.45;100.00;98787.75;5052579;28;20024;-75
2020/12/17 03:58:12;;;;;;;;;;;;;;;1.51;100.00;98789.59;5053029;28;20027;-76
2020/12/17 04:00:37;;;;;;;20.15;11.25;;;;;;;1.47;100.00;98786.50;5052861;28;19967;-75
2020/12/17 04:03:02;;;;;;;23.15;11.20;;;;;;;1.47;100.00;98791.09;5052930;28;20020;-73
2020/12/17 04:05:29;;;;;;;;;;;;;;;1.50;100.00;98787.97;5053896;28;20017;-75
2020/12/17 04:07:55;;;;;;;21.13;11.20;;;;;;;1.48;100.00;98793.56;5053957;28;19951;-77
2020/12/17 04:10:20;;;;;;;;;;;;;;;1.46;100.00;98789.44;5056381;28;20061;-83
2020/12/17 04:12:45;;;;;;;23.63;10.82;;;;;;;1.57;100.00;98792.25;5056388;28;19913;-83
2020/12/17 04:15:11;;;;;;;19.45;12.70;;;;;;;1.53;99.67;98787.53;5055565;28;20451;-77
2020/12/17 04:17:36;;;;;;;21.90;13.95;;;;;;;1.67;99.34;98788.25;5054787;28;20025;-77
2020/12/17 04:20:04;;;;;;;22.77;13.60;;;;;;;1.53;99.10;98782.97;5053866;28;20124;-78
2020/12/17 04:22:29;;;;;;;26.23;15.50;;;;;;;1.50;99.27;98793.34;5053363;28;20033;-77
2020/12/17 04:24:54;;;;;;;22.20;14.27;;;;;;;1.51;99.35;98793.13;5049312;28;20052;-75
2020/12/17 04:27:20;;;;;;;;;;;;;;;1.63;98.80;98793.25;5050781;28;20028;-75
2020/12/17 04:29:45;;;;;;;20.33;13.93;;;;;;;1.56;98.88;98784.41;5051052;28;19958;-76
2020/12/17 04:32:10;;;;;;;24.80;15.57;;;;;;;1.55;99.13;98788.13;5049685;28;20021;-73
2020/12/17 04:34:36;;;;;;;;;;;;;;;1.66;99.23;98795.50;5049761;28;20033;-75
2020/12/17 04:37:01;;;;;;;22.88;13.13;;;;;;;1.68;98.77;98790.75;5050609;28;20255;-75
2020/12/17 04:39:26;;;;;;;;;;;;;;;1.63;98.99;98793.25;5051168;28;20017;-75
2020/12/17 04:41:53;;;;;;;24.17;13.90;;;;;;;1.61;98.89;98792.66;5049233;28;19954;-76
2020/12/17 04:44:19;;;;;;;29.02;16.88;;;;;;;1.50;99.16;98799.53;5049292;28;20090;-74
2020/12/17 04:46:54;;;;;;;26.45;14.88;;;;;;;1.55;99.47;98804.28;5050719;28;20372;-75
2020/12/17 04:49:30;;;;;;;17.53;12.47;;;;;;;1.49;99.18;98802.47;5049096;28;20056;-75
2020/12/17 04:51:56;;;;;;;23.98;14.70;;;;;;;1.43;99.46;98801.47;5050804;28;20479;-75
2020/12/17 04:54:23;;;;;;;28.67;14.90;;;;;;;1.46;99.37;98805.59;5049382;28;20429;-75
2020/12/17 04:57:22;;;;;;;26.60;15.60;;;;;;;1.46;99.74;98803.72;5050993;28;20037;-75
2020/12/17 04:59:49;;;;;;;25.88;15.68;;;;;;;1.47;99.35;98809.97;5045420;28;20037;-75
2020/12/17 05:02:20;;;;;;;30.08;16.42;;;;;;;1.41;99.55;98811.63;5038506;28;20619;-76
2020/12/17 05:04:47;;;;;;;29.30;15.50;;;;;;;1.41;99.32;98810.81;5050340;28;20067;-75
2020/12/17 05:07:15;;;;;;;25.98;14.27;;;;;;;1.34;99.24;98810.03;5037896;28;20080;-75
2020/12/17 05:09:42;;;;;;;24.13;14.55;;;;;;;1.29;99.32;98809.81;5028959;28;20104;-74
2020/12/17 05:12:08;;;;;;;20.33;14.40;;;;;;;1.26;99.38;98812.94;5045484;28;20029;-75
2020/12/17 05:14:34;;;;;;;22.83;15.20;;;;;;;1.26;99.70;98812.94;5028882;28;20063;-75
2020/12/17 05:17:00;;;;;;;26.65;16.40;;;;;;;1.29;99.44;98820.59;5030168;28;20025;-74
2020/12/17 05:19:27;;;;;;;23.40;15.75;;;;;;;1.15;99.39;98821.72;5042904;28;20029;-75
2020/12/17 05:21:55;;;;;;;27.33;15.90;;;;;;;1.27;99.86;98820.00;5050187;28;20025;-75
2020/12/17 05:24:21;;;;;;;22.10;16.17;;;;;;;1.19;99.92;98820.25;5048441;28;20049;-75
2020/12/17 05:26:47;;;;;;;32.45;17.33;;;;;;;1.10;100.00;98814.25;5050001;28;20025;-74
2020/12/17 05:29:14;;;;;;;24.95;14.48;;;;;;;1.08;99.85;98822.56;5042499;28;20041;-75
2020/12/17 05:31:39;;;;;;;25.55;15.45;;;;;;;1.05;99.89;98823.00;5030249;28;20061;-75
2020/12/17 05:34:05;;;;;;;25.35;13.55;;;;;;;1.11;99.83;98832.09;5037713;28;20722;-75
2020/12/17 05:36:31;;;;;;;27.30;15.68;;;;;;;1.10;100.00;98824.22;5048845;28;20021;-75
2020/12/17 05:39:18;;;;;;;22.25;15.32;;;;;;;1.07;100.00;98828.97;5053206;28;20033;-73
2020/12/17 05:41:46;;;;;;;20.27;14.68;;;;;;;0.98;100.00;98830.25;5054001;28;20188;-75
2020/12/17 05:44:12;;;;;;;31.67;15.57;;;;;;;0.96;100.00;98834.22;5043095;28;20029;-74
2020/12/17 05:46:40;;;;;;;32.58;18.05;;;;;;;0.91;100.00;98832.13;5045984;28;20723;-74
2020/12/17 05:49:21;;;;;;;34.75;19.75;;;;;;;0.95;100.00;98838.75;5042168;28;20075;-74
2020/12/17 05:51:48;;;;;;;26.05;18.95;;;;;;;0.99;100.00;98837.31;5042469;28;20393;-75
2020/12/17 05:54:22;;;;;;;35.10;18.48;;;;;;;0.97;100.00;98835.88;5041027;28;20089;-74
2020/12/17 05:56:49;;;;;;;26.77;17.92;;;;;;;1.02;100.00;98842.28;5042111;28;20041;-74
2020/12/17 05:59:22;;;;;;;28.77;17.02;;;;;;;1.00;100.00;98841.63;5040426;28;20044;-74
2020/12/17 06:01:48;;;;;;;26.63;17.10;;;;;;;1.00;100.00;98844.34;5041324;28;20112;-74
2020/12/17 06:04:15;;;;;;;29.23;16.30;;;;;;;1.03;100.00;98835.81;5041657;28;20187;-75
2020/12/17 06:06:46;;;;;;;30.83;16.70;;;;;;;1.00;100.00;98841.63;5043699;28;20032;-77
2020/12/17 06:09:22;;;;;;;29.33;15.52;;;;;;;1.00;100.00;98848.91;5041493;28;20013;-75
2020/12/17 06:11:51;;;;;;;22.08;13.10;;;;;;;0.94;100.00;98844.38;5038575;28;20021;-77
2020/12/17 06:14:23;;;;;;;30.50;15.15;;;;;;;0.98;100.00;98849.13;5041919;28;20049;-76
2020/12/17 06:16:56;;;;;;;22.73;14.82;;;;;;;0.97;100.00;98847.44;5041182;28;20037;-76
2020/12/17 06:19:23;;;;;;;20.17;14.98;;;;;;;1.03;100.00;98849.28;5041651;28;20092;-76
2020/12/17 06:21:49;;;;;;;29.83;16.70;;;;;;;1.08;100.00;98854.88;5042886;28;20104;-76
2020/12/17 06:24:20;;;;;;;26.55;15.00;;;;;;;1.03;100.00;98859.25;5040771;28;20049;-76
2020/12/17 06:26:52;;;;;;;27.60;16.70;;;;;;;1.04;99.75;98850.97;5042501;28;20566;-75
2020/12/17 06:29:20;;;;;;;22.50;15.30;;;;;;;1.06;100.00;98848.91;5040622;28;20016;-76
2020/12/17 06:31:54;;;;;;;28.13;15.15;;;;;;;1.12;100.00;98849.91;5038495;28;20060;-77
2020/12/17 06:34:20;;;;;;;25.35;16.38;;;;;;;1.27;99.32;98858.53;5042224;28;20104;-74
2020/12/17 06:36:54;;;;;;;22.52;14.10;;;;;;;1.33;99.31;98857.69;5040547;28;20120;-76
2020/12/17 06:39:20;;;;;;;29.38;15.75;;;;;;;1.26;99.21;98862.28;5038099;28;20022;-76
2020/12/17 06:41:46;;;;;;;22.33;14.70;;;;;;;1.38;99.44;98870.53;5039352;28;20405;-77
2020/12/17 06:44:24;;;;;;;;;;;;;;;1.37;99.38;98869.69;5045085;28;20032;-76
2020/12/17 06:47:09;;;;;;;27.38;13.35;;;;;;;1.41;99.37;98864.72;5053155;28;19912;-89
2020/12/17 06:49:34;;;;;;;21.55;12.93;;;;;;;1.44;98.58;98875.88;5037016;28;20513;-90
2020/12/17 06:52:03;;;;;;;21.70;13.85;;;;;;;1.45;99.15;98887.47;5047208;28;20029;-91
2020/12/17 06:54:28;;;;;;;20.50;14.80;;;;;;;1.52;98.53;98888.28;5052681;28;20041;-91
2020/12/17 06:57:09;;;;;;;34.35;14.95;;;;;;;1.48;99.19;98884.34;5056055;28;20056;-76
2020/12/17 06:59:36;;;;;;;25.85;15.60;;;;;;;1.74;99.15;98897.72;5052349;28;20114;-75
2020/12/17 07:02:01;;;;;;;21.55;14.73;;;;;;;1.69;98.41;98891.31;5051624;28;20043;-76
2020/12/17 07:04:36;;;;;;;30.13;16.10;;;;;;;1.63;98.63;98901.06;5049856;28;20565;-75
2020/12/17 07:07:21;;;;;;;16.77;9.85;;;;;;;1.56;98.94;98895.75;5051525;28;20108;-76
2020/12/17 07:09:49;;;;;;;28.85;14.13;;;;;;;1.56;99.00;98900.31;5049922;28;20028;-76
2020/12/17 07:12:33;;;;;;;28.80;15.82;;;;;;;1.58;99.37;98898.22;5051070;28;20032;-76
2020/12/17 07:14:59;;;;;;;23.27;15.25;;;;;;;1.48;99.46;98897.84;5052012;28;20389;-76
2020/12/17 07:17:25;;;;;;;19.58;12.60;;;;;;;1.42;99.72;98894.13;5051251;28;20047;-75
2020/12/17 07:19:52;;;;;;;19.77;12.43;;;;;;;1.47;99.77;98897.00;5051346;28;20024;-76
2020/12/17 07:22:18;;;;;;;23.63;15.32;;;;;;;1.51;99.60;98892.00;5050551;28;20478;-76
2020/12/17 07:24:48;;;;;;;27.50;14.85;;;;;;;1.58;99.91;98896.34;5051595;28;20049;-74
2020/12/17 07:27:15;;;;;;;20.92;12.98;;;;;;;1.55;99.43;98904.03;5051289;28;20502;-75
2020/12/17 07:30:08;;;;;;;23.52;15.18;;;;;;;1.59;99.24;98899.88;5051457;28;20031;-77
2020/12/17 07:32:37;;;;;;;24.17;13.75;;;;;;;1.77;98.92;98901.84;5052619;28;20090;-76
2020/12/17 07:35:08;;;;;;;23.83;14.48;;;;;;;1.73;98.44;98896.06;5054975;28;20021;-75
2020/12/17 07:37:41;;;;;;;22.30;13.73;;;;;;;1.66;98.58;98899.84;5056283;28;20422;-76
2020/12/17 07:40:17;;;;;;;24.15;13.93;;;;;;;1.66;98.69;98892.56;5053085;28;20039;-77
2020/12/17 07:42:58;;;;;;;21.98;13.43;;;;;;;1.52;98.84;98909.84;5050384;28;20056;-76
2020/12/17 07:45:42;;;;;;;20.33;12.88;;;;;;;1.60;98.95;98899.66;5051906;28;20033;-75
2020/12/17 07:48:33;;;;;;;18.90;12.95;;;;;;;1.79;99.37;98910.53;5051543;28;20060;-76
2020/12/17 07:51:12;;;;;;;19.67;12.57;;;;;;;2.80;97.56;98912.09;5050255;28;20060;-75
2020/12/17 07:53:38;;;;;;;27.23;14.23;;;;;;;3.18;94.59;98911.94;5049857;28;20078;-77
2020/12/17 07:56:06;;;;;;;20.23;12.77;;;;;;;2.79;92.98;98913.13;5049492;28;20043;-75
2020/12/17 07:58:31;;;;;;;17.20;11.82;;;;;;;2.38;94.02;98910.19;5050866;28;20035;-76
2020/12/17 08:00:57;;;;;;;20.17;12.02;;;;;;;2.17;95.04;98909.50;5048809;28;20029;-78
2020/12/17 08:03:24;;;;;;;19.80;11.85;;;;;;;2.24;95.37;98914.00;5049733;28;20478;-74
2020/12/17 08:05:50;;;;;;;18.67;11.85;;;;;;;2.20;95.37;98918.19;5048776;28;20386;-75
2020/12/17 08:08:17;;;;;;;19.50;12.55;;;;;;;2.34;95.24;98919.75;5049022;28;20036;-74
2020/12/17 08:10:43;;;;;;;24.08;13.15;;;;;;;3.04;92.51;98916.63;5048941;28;20051;-76
2020/12/17 08:13:09;;;;;;;20.10;11.98;;;;;;;3.02;91.42;98918.75;5050217;28;20033;-75
2020/12/17 08:15:34;;;;;;;21.38;13.20;;;;;;;3.03;91.09;98920.41;5049883;28;20028;-74
2020/12/17 08:18:01;;;;;;;22.13;13.52;;;;;;;3.00;91.35;98923.56;5049986;28;20037;-76
2020/12/17 08:20:27;;;;;;;23.60;13.65;;;;;;;2.79;92.06;98921.25;5050168;28;20043;-75
2020/12/17 08:22:53;;;;;;;24.08;14.68;;;;;;;2.79;93.06;98925.84;5050012;28;20008;-76
2020/12/17 08:25:21;;;;;;;19.15;11.90;;;;;;;3.18;91.62;98934.38;5048532;28;20079;-77
2020/12/17 08:27:47;;;;;;;18.60;12.20;;;;;;;3.90;88.45;98921.03;5049286;28;20048;-75
2020/12/17 08:30:13;;;;;;;20.33;13.77;;;;;;;3.92;87.26;98922.47;5035635;28;20029;-74
2020/12/17 08:32:52;;;;;;;19.75;12.70;;;;;;;3.71;88.12;98925.66;5037879;28;20048;-75
2020/12/17 08:35:22;;;;;;;26.20;14.82;;;;;;;3.84;87.44;98922.78;5037893;28;20032;-75
2020/12/17 08:37:50;;;;;;;20.25;12.95;;;;;;;4.69;85.52;98926.13;5041352;28;20075;-74
2020/12/17 08:40:24;;;;;;;19.75;13.15;;;;;;;5.83;80.12;98928.13;5031154;28;20080;-74
2020/12/17 08:42:55;;;;;;;20.55;13.90;;;;;;;7.26;73.22;98925.81;5030571;28;20497;-75
2020/12/17 08:45:24;;;;;;;19.95;11.20;;;;;;;9.16;66.28;98916.44;5030470;28;20025;-75
2020/12/17 08:47:53;;;;;;;17.85;11.02;;;;;;;8.34;67.24;98932.34;5030832;28;20028;-75
2020/12/17 08:50:19;;;;;;;24.73;17.42;;;;;;;9.79;63.37;98936.47;5030320;28;20034;-75
2020/12/17 08:52:45;;;;;;;12.27;9.48;;;;;;;10.93;58.57;98928.84;5031848;28;20139;-75
2020/12/17 08:55:11;;;;;;;25.35;15.32;;;;;;;9.48;61.73;98936.31;5050821;28;20037;-75
2020/12/17 08:57:38;;;;;;;19.90;13.70;;;;;;;8.56;67.87;98935.84;5051259;28;20032;-75
2020/12/17 09:00:19;;;;;;;23.35;14.65;;;;;;;9.85;62.49;98935.41;5051447;28;20026;-75
2020/12/17 09:02:45;;;;;;;14.50;11.23;;;;;;;9.97;61.58;98936.81;5045132;28;20586;-75
2020/12/17 09:05:13;;;;;;;17.02;10.23;;;;;;;7.74;68.58;98935.97;5037975;28;20156;-74
2020/12/17 09:07:46;;;;;;;16.25;11.85;;;;;;;8.03;68.71;98939.34;5036418;28;20108;-75
2020/12/17 09:10:16;;;;;;;17.42;13.05;;;;;;;8.50;66.63;98940.44;5035338;28;20056;-73
2020/12/17 09:12:42;;;;;;;28.42;17.98;;;;;;;8.86;64.80;98932.59;5039204;28;20022;-74
2020/12/17 09:15:10;;;;;;;22.75;14.50;;;;;;;7.64;68.89;98941.31;5041476;28;20094;-75
2020/12/17 09:17:36;;;;;;;20.83;12.80;;;;;;;6.24;74.87;98949.63;5044834;28;21131;-73
2020/12/17 09:20:14;;;;;;;17.38;11.43;;;;;;;5.41;79.15;98943.81;5043250;28;20025;-76
2020/12/17 09:22:39;;;;;;;16.98;10.45;;;;;;;4.97;81.34;98942.53;5041290;28;20710;-76
2020/12/17 09:25:05;;;;;;;16.35;12.98;;;;;;;4.55;83.62;98941.75;5039855;28;20041;-75
2020/12/17 09:27:36;;;;;;;18.08;13.85;;;;;;;4.49;85.50;98942.69;5038381;28;20028;-74
2020/12/17 09:30:13;;;;;;;20.23;10.88;;;;;;;6.45;78.26;98943.50;5039656;28;20436;-75
2020/12/17 09:32:41;;;;;;;16.23;10.80;;;;;;;7.07;73.30;98931.75;5040084;28;20622;-74
2020/12/17 09:35:12;;;;;;;21.75;12.38;;;;;;;8.95;66.82;98939.22;5039442;28;20037;-75
2020/12/17 09:37:40;;;;;;;13.82;10.98;;;;;;;8.74;66.74;98940.13;5040462;28;20025;-75
2020/12/17 09:40:08;;;;;;;17.00;10.43;;;;;;;9.05;65.97;98940.09;5038842;28;20021;-75
2020/12/17 09:42:33;;;;;;;13.18;9.55;;;;;;;9.32;64.31;98937.31;5037984;28;20041;-75
2020/12/17 09:45:15;;;;;;;18.17;11.68;;;;;;;8.88;65.86;98935.88;5038919;28;20115;-76
2020/12/17 09:47:41;;;;;;;16.05;10.77;;;;;;;9.46;63.72;98935.75;5038806;28;20040;-76
2020/12/17 09:50:09;;;;;;;22.55;10.80;;;;;;;8.60;65.23;98940.53;5039998;28;20021;-75
2020/12/17 09:52:34;;;;;;;16.30;10.98;;;;;;;7.13;70.65;98942.47;5038746;28;20028;-75
2020/12/17 09:55:00;;;;;;;18.27;13.48;;;;;;;5.92;75.79;98943.00;5038421;28;20029;-75
2020/12/17 09:57:34;;;;;;;38.67;19.00;;;;;;;5.81;77.58;98936.53;5036624;28;20033;-76
2020/12/17 10:00:00;;;;;;;23.73;15.13;;;;;;;5.88;77.95;98944.56;5052123;28;20017;-75
2020/12/17 10:02:25;;;;;;;22.00;13.93;;;;;;;5.68;78.47;98952.25;5038001;28;20034;-75
2020/12/17 10:04:51;;;;;;;21.83;14.25;;;;;;;6.20;76.68;98948.44;5032810;28;20039;-76
2020/12/17 10:07:16;;;;;;;21.10;15.68;;;;;;;5.73;78.59;98939.59;5049480;28;20112;-76
2020/12/17 10:09:41;;;;;;;;;;;;;;;5.34;80.45;98943.09;5049455;28;20033;-75
2020/12/17 10:12:07;;;;;;;27.17;16.02;;;;;;;5.09;82.10;98935.22;5042676;28;19968;-74
2020/12/17 10:14:32;;;;;;;;;;;;;;;4.93;83.66;98933.19;5050007;28;20508;-74
2020/12/17 10:17:01;;;;;;;20.90;14.02;;;;;;;5.22;82.89;98940.41;5050413;28;19917;-75
2020/12/17 10:19:29;;;;;;;21.05;13.23;;;;;;;5.41;82.05;98938.38;5050893;28;20124;-74
2020/12/17 10:21:56;;;;;;;24.35;14.13;;;;;;;5.91;80.64;98938.66;5049789;28;20545;-75
2020/12/17 10:24:22;;;;;;;23.50;14.88;;;;;;;5.98;79.90;98933.91;5049631;28;20493;-75
2020/12/17 10:26:47;;;;;;;24.35;14.93;;;;;;;5.75;80.32;98928.53;5045259;28;20030;-75
2020/12/17 10:29:12;;;;;;;;;;;;;;;5.40;81.92;98934.84;5036824;28;20021;-76
2020/12/17 10:31:38;;;;;;;18.88;13.65;;;;;;;5.62;81.43;98932.31;5044499;28;19921;-75
2020/12/17 10:34:03;;;;;;;;;;;;;;;6.06;79.81;98938.13;5049817;28;20037;-75
2020/12/17 10:36:29;;;;;;;25.10;18.17;;;;;;;6.42;78.12;98933.09;5050872;28;19916;-75
2020/12/17 10:38:54;;;;;;;;;;;;;;;6.38;78.62;98929.25;5049903;28;20033;-76
2020/12/17 10:41:26;;;;;;;23.48;13.90;;;;;;;6.25;78.87;98926.84;5041426;28;19917;-75
2020/12/17 10:43:53;;;;;;;21.35;13.57;;;;;;;6.09;79.48;98930.31;5037408;28;20069;-76
2020/12/17 10:46:18;;;;;;;67.03;27.08;;;;;;;6.29;79.07;98927.19;5047813;28;20029;-75
2020/12/17 10:48:44;;;;;;;44.30;22.35;;;;;;;6.33;79.01;98929.13;5050810;28;20028;-75
2020/12/17 10:51:12;;;;;;;;;;;;;;;6.46;79.15;98925.28;5050007;28;20060;-75
2020/12/17 10:53:37;;;;;;;22.27;15.30;;;;;;;6.45;78.66;98915.53;5050531;28;19936;-74
2020/12/17 10:56:03;;;;;;;21.85;13.68;;;;;;;6.54;78.09;98918.66;5049137;28;20477;-75
2020/12/17 10:58:28;;;;;;;;;;;;;;;6.54;77.81;98918.66;5042908;28;20037;-75
2020/12/17 11:00:53;;;;;;;16.60;11.25;;;;;;;6.85;76.84;98909.94;5048984;28;19916;-75
2020/12/17 11:03:18;;;;;;;;;;;;;;;7.30;74.79;98917.97;5050993;28;20025;-75
2020/12/17 11:05:44;;;;;;;19.10;10.82;;;;;;;7.26;75.24;98906.75;5048722;28;20308;-75
2020/12/17 11:08:09;;;;;;;20.95;13.75;;;;;;;7.42;74.71;98908.59;5048224;28;20029;-75
2020/12/17 11:10:35;;;;;;;17.65;12.18;;;;;;;7.58;74.08;98908.81;5040098;28;20025;-75
2020/12/17 11:13:00;;;;;;;31.90;17.42;;;;;;;7.58;74.12;98904.19;5038409;28;20056;-74
2020/12/17 11:15:25;;;;;;;18.92;13.30;;;;;;;7.89;72.96;98895.31;5038556;28;20013;-75
2020/12/17 11:17:51;;;;;;;20.83;15.10;;;;;;;8.10;71.74;98890.91;5037850;28;20120;-75
2020/12/17 11:20:18;;;;;;;14.77;11.65;;;;;;;7.99;72.20;98897.31;5039920;28;20048;-77
2020/12/17 11:22:43;;;;;;;25.52;17.80;;;;;;;7.94;72.91;98894.56;5036237;28;20493;-74
2020/12/17 11:25:09;;;;;;;20.42;14.55;;;;;;;8.24;72.12;98892.16;5038823;28;20074;-76
2020/12/17 11:27:36;;;;;;;20.90;13.95;;;;;;;8.20;71.98;98895.66;5034885;28;20025;-80
2020/12/17 11:30:04;;;;;;;19.92;11.98;;;;;;;8.56;70.67;98890.31;5038457;28;20410;-74
2020/12/17 11:32:29;;;;;;;19.73;11.93;;;;;;;8.74;70.48;98891.03;5037726;28;20028;-76
2020/12/17 11:34:54;;;;;;;15.77;10.35;;;;;;;8.65;70.29;98890.66;5036050;28;20028;-75
2020/12/17 11:37:20;;;;;;;13.10;10.60;;;;;;;8.79;70.01;98891.06;5038832;28;20121;-76
2020/12/17 11:39:45;;;;;;;16.08;10.90;;;;;;;8.10;72.04;98890.91;5037671;28;20025;-75